sensor_id;sensor_type;location;lat;lon;timestamp;temperature;humidity
41987;DHT22;28361;50.740;7.084;2022-08-01T00:11:39;22.00;79.00
41987;DHT22;28361;50.740;7.084;2022-08-01T00:18:57;22.00;80.30
41987;DHT22;28361;50.740;7.084;2022-08-01T00:21:23;22.00;81.60
41987;DHT22;28361;50.740;7.084;2022-08-01T00:23:48;22.00;85.50
41987;DHT22;28361;50.740;7.084;2022-08-01T00:26:14;21.90;82.30
41987;DHT22;28361;50.740;7.084;2022-08-01T00:28:41;21.90;83.60
41987;DHT22;28361;50.740;7.084;2022-08-01T00:31:07;21.90;84.30
41987;DHT22;28361;50.740;7.084;2022-08-01T00:33:33;22.00;85.10
41987;DHT22;28361;50.740;7.084;2022-08-01T00:35:58;22.00;84.00
41987;DHT22;28361;50.740;7.084;2022-08-01T00:38:24;22.00;85.60
41987;DHT22;28361;50.740;7.084;2022-08-01T00:40:50;21.90;84.30
41987;DHT22;28361;50.740;7.084;2022-08-01T00:43:16;22.00;84.90
41987;DHT22;28361;50.740;7.084;2022-08-01T00:45:42;22.00;85.50
41987;DHT22;28361;50.740;7.084;2022-08-01T00:48:08;21.90;85.00
41987;DHT22;28361;50.740;7.084;2022-08-01T00:50:34;21.90;86.10
41987;DHT22;28361;50.740;7.084;2022-08-01T00:53:00;21.90;87.50
41987;DHT22;28361;50.740;7.084;2022-08-01T00:55:27;21.90;87.90
41987;DHT22;28361;50.740;7.084;2022-08-01T00:57:54;21.80;88.50
41987;DHT22;28361;50.740;7.084;2022-08-01T01:00:20;21.80;88.60
41987;DHT22;28361;50.740;7.084;2022-08-01T01:02:46;21.80;89.50
41987;DHT22;28361;50.740;7.084;2022-08-01T01:05:11;21.90;88.60
41987;DHT22;28361;50.740;7.084;2022-08-01T01:07:44;21.90;88.60
41987;DHT22;28361;50.740;7.084;2022-08-01T01:10:31;21.80;88.50
41987;DHT22;28361;50.740;7.084;2022-08-01T01:13:13;21.80;90.40
41987;DHT22;28361;50.740;7.084;2022-08-01T01:15:48;21.80;90.30
41987;DHT22;28361;50.740;7.084;2022-08-01T01:18:30;21.90;90.10
41987;DHT22;28361;50.740;7.084;2022-08-01T01:21:07;21.80;91.10
41987;DHT22;28361;50.740;7.084;2022-08-01T01:26:43;21.70;91.40
41987;DHT22;28361;50.740;7.084;2022-08-01T01:29:48;21.60;92.30
41987;DHT22;28361;50.740;7.084;2022-08-01T01:32:24;21.40;93.70
41987;DHT22;28361;50.740;7.084;2022-08-01T01:34:54;21.50;94.00
41987;DHT22;28361;50.740;7.084;2022-08-01T01:37:23;21.60;93.80
41987;DHT22;28361;50.740;7.084;2022-08-01T01:42:18;21.50;94.90
41987;DHT22;28361;50.740;7.084;2022-08-01T01:44:45;21.50;95.70
41987;DHT22;28361;50.740;7.084;2022-08-01T01:47:15;21.30;96.40
41987;DHT22;28361;50.740;7.084;2022-08-01T01:49:44;21.40;97.10
41987;DHT22;28361;50.740;7.084;2022-08-01T01:52:14;21.60;96.60
41987;DHT22;28361;50.740;7.084;2022-08-01T01:54:46;21.60;96.90
41987;DHT22;28361;50.740;7.084;2022-08-01T01:57:13;21.50;97.20
41987;DHT22;28361;50.740;7.084;2022-08-01T02:02:07;21.40;97.30
41987;DHT22;28361;50.740;7.084;2022-08-01T02:04:42;21.20;99.90
41987;DHT22;28361;50.740;7.084;2022-08-01T02:09:37;21.20;99.90
41987;DHT22;28361;50.740;7.084;2022-08-01T02:12:05;21.20;99.90
41987;DHT22;28361;50.740;7.084;2022-08-01T02:14:33;21.10;99.90
41987;DHT22;28361;50.740;7.084;2022-08-01T02:19:30;21.00;99.90
41987;DHT22;28361;50.740;7.084;2022-08-01T02:29:52;21.10;99.90
41987;DHT22;28361;50.740;7.084;2022-08-01T02:32:38;20.90;99.90
41987;DHT22;28361;50.740;7.084;2022-08-01T02:35:07;21.00;99.90
41987;DHT22;28361;50.740;7.084;2022-08-01T02:37:38;21.00;99.90
41987;DHT22;28361;50.740;7.084;2022-08-01T02:40:05;21.00;99.90
41987;DHT22;28361;50.740;7.084;2022-08-01T02:42:33;21.10;99.90
41987;DHT22;28361;50.740;7.084;2022-08-01T02:45:02;21.00;99.90
41987;DHT22;28361;50.740;7.084;2022-08-01T02:47:30;20.90;99.90
41987;DHT22;28361;50.740;7.084;2022-08-01T02:49:57;20.90;99.90
41987;DHT22;28361;50.740;7.084;2022-08-01T02:54:54;20.90;99.90
41987;DHT22;28361;50.740;7.084;2022-08-01T02:57:21;20.80;99.90
41987;DHT22;28361;50.740;7.084;2022-08-01T02:59:47;20.80;99.90
41987;DHT22;28361;50.740;7.084;2022-08-01T03:02:15;20.60;99.90
41987;DHT22;28361;50.740;7.084;2022-08-01T03:17:01;20.70;99.90
41987;DHT22;28361;50.740;7.084;2022-08-01T03:19:27;20.90;99.90
41987;DHT22;28361;50.740;7.084;2022-08-01T03:21:55;20.80;99.90
41987;DHT22;28361;50.740;7.084;2022-08-01T03:24:25;20.70;99.90
41987;DHT22;28361;50.740;7.084;2022-08-01T03:26:52;20.70;99.90
41987;DHT22;28361;50.740;7.084;2022-08-01T03:29:22;20.80;99.90
41987;DHT22;28361;50.740;7.084;2022-08-01T03:31:50;20.80;99.90
41987;DHT22;28361;50.740;7.084;2022-08-01T03:34:17;20.80;99.90
41987;DHT22;28361;50.740;7.084;2022-08-01T03:36:47;20.80;99.90
41987;DHT22;28361;50.740;7.084;2022-08-01T03:39:14;20.80;99.90
41987;DHT22;28361;50.740;7.084;2022-08-01T03:41:46;20.70;99.90
41987;DHT22;28361;50.740;7.084;2022-08-01T03:44:16;20.70;99.90
41987;DHT22;28361;50.740;7.084;2022-08-01T03:46:54;20.80;99.90
41987;DHT22;28361;50.740;7.084;2022-08-01T03:49:25;20.80;99.90
41987;DHT22;28361;50.740;7.084;2022-08-01T03:51:52;20.70;99.90
41987;DHT22;28361;50.740;7.084;2022-08-01T03:54:24;20.80;99.90
41987;DHT22;28361;50.740;7.084;2022-08-01T03:56:52;20.80;99.90
41987;DHT22;28361;50.740;7.084;2022-08-01T03:59:19;20.80;99.90
41987;DHT22;28361;50.740;7.084;2022-08-01T04:01:46;20.80;99.90
41987;DHT22;28361;50.740;7.084;2022-08-01T04:04:13;20.90;99.90
41987;DHT22;28361;50.740;7.084;2022-08-01T04:06:39;20.90;99.90
41987;DHT22;28361;50.740;7.084;2022-08-01T04:09:07;20.90;99.90
41987;DHT22;28361;50.740;7.084;2022-08-01T04:11:33;20.80;99.90
41987;DHT22;28361;50.740;7.084;2022-08-01T04:13:59;20.80;99.90
41987;DHT22;28361;50.740;7.084;2022-08-01T04:16:25;20.80;99.90
41987;DHT22;28361;50.740;7.084;2022-08-01T04:18:51;20.80;99.90
41987;DHT22;28361;50.740;7.084;2022-08-01T04:21:23;20.90;99.90
41987;DHT22;28361;50.740;7.084;2022-08-01T04:23:53;20.80;99.90
41987;DHT22;28361;50.740;7.084;2022-08-01T04:26:20;20.70;99.90
41987;DHT22;28361;50.740;7.084;2022-08-01T04:28:48;20.80;99.90
41987;DHT22;28361;50.740;7.084;2022-08-01T04:31:16;20.70;99.90
41987;DHT22;28361;50.740;7.084;2022-08-01T04:33:47;20.70;99.90
41987;DHT22;28361;50.740;7.084;2022-08-01T04:36:14;20.70;99.90
41987;DHT22;28361;50.740;7.084;2022-08-01T04:38:45;20.80;99.90
41987;DHT22;28361;50.740;7.084;2022-08-01T04:41:12;20.70;99.90
41987;DHT22;28361;50.740;7.084;2022-08-01T04:43:38;20.80;99.90
41987;DHT22;28361;50.740;7.084;2022-08-01T04:46:06;20.90;99.90
41987;DHT22;28361;50.740;7.084;2022-08-01T04:48:33;20.80;99.90
41987;DHT22;28361;50.740;7.084;2022-08-01T04:51:00;20.90;99.90
41987;DHT22;28361;50.740;7.084;2022-08-01T04:53:26;20.90;99.90
41987;DHT22;28361;50.740;7.084;2022-08-01T04:55:53;20.90;99.90
41987;DHT22;28361;50.740;7.084;2022-08-01T04:58:19;20.80;99.90
41987;DHT22;28361;50.740;7.084;2022-08-01T05:00:45;20.80;99.90
41987;DHT22;28361;50.740;7.084;2022-08-01T05:03:11;20.80;99.90
41987;DHT22;28361;50.740;7.084;2022-08-01T05:05:37;20.80;99.90
41987;DHT22;28361;50.740;7.084;2022-08-01T05:08:02;20.90;99.90
41987;DHT22;28361;50.740;7.084;2022-08-01T05:10:28;20.90;99.90
41987;DHT22;28361;50.740;7.084;2022-08-01T05:12:54;20.80;99.90
41987;DHT22;28361;50.740;7.084;2022-08-01T05:15:20;20.90;99.90
41987;DHT22;28361;50.740;7.084;2022-08-01T05:17:46;21.00;99.90
41987;DHT22;28361;50.740;7.084;2022-08-01T05:20:12;21.00;99.90
41987;DHT22;28361;50.740;7.084;2022-08-01T05:22:38;20.90;99.90
41987;DHT22;28361;50.740;7.084;2022-08-01T05:25:04;20.90;99.90
41987;DHT22;28361;50.740;7.084;2022-08-01T05:27:31;21.00;99.90
41987;DHT22;28361;50.740;7.084;2022-08-01T05:29:57;20.90;99.90
41987;DHT22;28361;50.740;7.084;2022-08-01T05:32:22;20.90;99.90
41987;DHT22;28361;50.740;7.084;2022-08-01T05:34:48;20.90;99.90
41987;DHT22;28361;50.740;7.084;2022-08-01T05:37:14;20.90;99.90
41987;DHT22;28361;50.740;7.084;2022-08-01T05:39:40;20.90;99.90
41987;DHT22;28361;50.740;7.084;2022-08-01T05:42:06;21.00;99.90
41987;DHT22;28361;50.740;7.084;2022-08-01T05:44:32;21.00;99.90
41987;DHT22;28361;50.740;7.084;2022-08-01T05:46:58;21.00;99.90
41987;DHT22;28361;50.740;7.084;2022-08-01T05:49:23;21.20;99.90
41987;DHT22;28361;50.740;7.084;2022-08-01T05:51:49;21.20;99.90
41987;DHT22;28361;50.740;7.084;2022-08-01T05:54:15;21.20;99.90
41987;DHT22;28361;50.740;7.084;2022-08-01T05:56:41;21.20;99.90
41987;DHT22;28361;50.740;7.084;2022-08-01T05:59:06;21.30;99.90
41987;DHT22;28361;50.740;7.084;2022-08-01T06:01:32;21.30;99.90
41987;DHT22;28361;50.740;7.084;2022-08-01T06:03:58;21.30;99.90
41987;DHT22;28361;50.740;7.084;2022-08-01T06:06:24;21.40;99.90
41987;DHT22;28361;50.740;7.084;2022-08-01T06:08:49;21.40;99.90
41987;DHT22;28361;50.740;7.084;2022-08-01T06:11:16;21.40;99.90
41987;DHT22;28361;50.740;7.084;2022-08-01T06:13:41;21.40;99.90
41987;DHT22;28361;50.740;7.084;2022-08-01T06:16:07;21.30;99.90
41987;DHT22;28361;50.740;7.084;2022-08-01T06:18:32;21.40;99.90
41987;DHT22;28361;50.740;7.084;2022-08-01T06:20:58;21.50;99.90
41987;DHT22;28361;50.740;7.084;2022-08-01T06:23:24;21.30;99.90
41987;DHT22;28361;50.740;7.084;2022-08-01T06:25:53;21.30;99.90
41987;DHT22;28361;50.740;7.084;2022-08-01T10:02:09;21.30;99.90
41987;DHT22;28361;50.740;7.084;2022-08-01T10:04:36;26.90;37.10
41987;DHT22;28361;50.740;7.084;2022-08-01T10:07:06;26.80;42.00
41987;DHT22;28361;50.740;7.084;2022-08-01T10:09:34;26.70;33.80
41987;DHT22;28361;50.740;7.084;2022-08-01T10:12:01;26.70;48.90
41987;DHT22;28361;50.740;7.084;2022-08-01T10:14:28;26.80;38.30
41987;DHT22;28361;50.740;7.084;2022-08-01T10:16:56;26.70;49.00
41987;DHT22;28361;50.740;7.084;2022-08-01T10:19:27;27.60;42.30
41987;DHT22;28361;50.740;7.084;2022-08-01T10:21:55;28.40;31.80
41987;DHT22;28361;50.740;7.084;2022-08-01T11:27:31;27.30;1.00
41987;DHT22;28361;50.740;7.084;2022-08-01T11:32:51;28.00;1.00
41987;DHT22;28361;50.740;7.084;2022-08-01T11:35:18;28.10;5.90
41987;DHT22;28361;50.740;7.084;2022-08-01T11:37:45;28.40;1.00
41987;DHT22;28361;50.740;7.084;2022-08-01T11:40:29;28.00;4.20
41987;DHT22;28361;50.740;7.084;2022-08-01T11:45:55;28.30;1.10
41987;DHT22;28361;50.740;7.084;2022-08-01T11:48:23;27.70;2.10
41987;DHT22;28361;50.740;7.084;2022-08-01T11:50:56;27.20;1.30
41987;DHT22;28361;50.740;7.084;2022-08-01T11:53:22;26.50;7.50
41987;DHT22;28361;50.740;7.084;2022-08-01T11:55:52;26.10;11.00
41987;DHT22;28361;50.740;7.084;2022-08-01T11:58:23;25.70;16.60
41987;DHT22;28361;50.740;7.084;2022-08-01T12:00:53;25.50;19.10
41987;DHT22;28361;50.740;7.084;2022-08-01T12:05:53;25.20;17.00
41987;DHT22;28361;50.740;7.084;2022-08-01T12:08:30;25.10;17.00
41987;DHT22;28361;50.740;7.084;2022-08-01T12:11:03;25.20;20.00
41987;DHT22;28361;50.740;7.084;2022-08-01T12:13:42;25.50;16.50
41987;DHT22;28361;50.740;7.084;2022-08-01T12:16:10;25.80;8.30
41987;DHT22;28361;50.740;7.084;2022-08-01T12:18:40;25.70;11.50
41987;DHT22;28361;50.740;7.084;2022-08-01T12:21:06;25.50;14.60
41987;DHT22;28361;50.740;7.084;2022-08-01T12:23:32;25.90;14.90
41987;DHT22;28361;50.740;7.084;2022-08-01T12:25:57;26.20;11.00
41987;DHT22;28361;50.740;7.084;2022-08-01T12:28:23;26.50;10.90
41987;DHT22;28361;50.740;7.084;2022-08-01T12:30:50;26.70;11.10
41987;DHT22;28361;50.740;7.084;2022-08-01T12:33:20;27.00;9.90
41987;DHT22;28361;50.740;7.084;2022-08-01T12:35:46;26.90;7.50
41987;DHT22;28361;50.740;7.084;2022-08-01T12:38:20;26.90;7.60
41987;DHT22;28361;50.740;7.084;2022-08-01T12:40:52;26.90;9.10
41987;DHT22;28361;50.740;7.084;2022-08-01T12:43:19;26.90;7.60
41987;DHT22;28361;50.740;7.084;2022-08-01T12:45:47;26.70;3.30
41987;DHT22;28361;50.740;7.084;2022-08-01T12:48:15;26.70;7.60
41987;DHT22;28361;50.740;7.084;2022-08-01T12:50:44;27.20;1.00
41987;DHT22;28361;50.740;7.084;2022-08-01T12:53:12;27.30;1.00
41987;DHT22;28361;50.740;7.084;2022-08-01T12:55:54;27.20;3.40
41987;DHT22;28361;50.740;7.084;2022-08-01T12:58:20;26.60;2.50
41987;DHT22;28361;50.740;7.084;2022-08-01T13:00:47;26.30;5.60
41987;DHT22;28361;50.740;7.084;2022-08-01T13:03:15;26.20;6.60
41987;DHT22;28361;50.740;7.084;2022-08-01T13:05:47;26.30;5.60
41987;DHT22;28361;50.740;7.084;2022-08-01T13:08:15;26.40;1.00
41987;DHT22;28361;50.740;7.084;2022-08-01T13:10:42;26.70;1.00
41987;DHT22;28361;50.740;7.084;2022-08-01T13:13:08;27.20;1.00
41987;DHT22;28361;50.740;7.084;2022-08-01T13:15:37;28.00;1.00
41987;DHT22;28361;50.740;7.084;2022-08-01T13:23:21;27.70;1.00
41987;DHT22;28361;50.740;7.084;2022-08-01T13:25:52;26.80;1.00
41987;DHT22;28361;50.740;7.084;2022-08-01T13:28:26;27.30;1.00
41987;DHT22;28361;50.740;7.084;2022-08-01T13:31:04;27.70;1.00
41987;DHT22;28361;50.740;7.084;2022-08-01T13:33:59;27.90;1.00
41987;DHT22;28361;50.740;7.084;2022-08-01T13:36:25;27.40;1.00
41987;DHT22;28361;50.740;7.084;2022-08-01T13:39:00;27.20;1.00
41987;DHT22;28361;50.740;7.084;2022-08-01T13:41:45;27.10;1.00
41987;DHT22;28361;50.740;7.084;2022-08-01T13:44:11;27.00;1.00
41987;DHT22;28361;50.740;7.084;2022-08-01T13:46:38;26.80;1.00
41987;DHT22;28361;50.740;7.084;2022-08-01T13:49:05;26.60;1.00
41987;DHT22;28361;50.740;7.084;2022-08-01T13:51:31;26.80;1.00
41987;DHT22;28361;50.740;7.084;2022-08-01T13:53:57;27.20;1.00
41987;DHT22;28361;50.740;7.084;2022-08-01T13:56:23;27.30;1.00
41987;DHT22;28361;50.740;7.084;2022-08-01T13:58:50;27.30;1.00
41987;DHT22;28361;50.740;7.084;2022-08-01T14:01:16;27.20;1.00
41987;DHT22;28361;50.740;7.084;2022-08-01T14:03:42;26.80;1.00
41987;DHT22;28361;50.740;7.084;2022-08-01T14:06:08;26.60;1.00
41987;DHT22;28361;50.740;7.084;2022-08-01T14:08:34;26.30;1.00
41987;DHT22;28361;50.740;7.084;2022-08-01T14:10:59;26.40;1.10
41987;DHT22;28361;50.740;7.084;2022-08-01T14:13:28;26.50;1.00
41987;DHT22;28361;50.740;7.084;2022-08-01T14:15:53;26.40;1.00
41987;DHT22;28361;50.740;7.084;2022-08-01T14:18:19;26.30;1.00
41987;DHT22;28361;50.740;7.084;2022-08-01T14:20:45;26.20;1.00
41987;DHT22;28361;50.740;7.084;2022-08-01T14:23:11;26.40;1.00
41987;DHT22;28361;50.740;7.084;2022-08-01T14:25:37;26.30;1.00
41987;DHT22;28361;50.740;7.084;2022-08-01T14:28:04;26.30;1.00
41987;DHT22;28361;50.740;7.084;2022-08-01T14:30:31;26.10;1.00
41987;DHT22;28361;50.740;7.084;2022-08-01T14:32:57;26.20;1.00
41987;DHT22;28361;50.740;7.084;2022-08-01T14:35:23;26.30;1.00
41987;DHT22;28361;50.740;7.084;2022-08-01T14:37:49;26.10;1.00
41987;DHT22;28361;50.740;7.084;2022-08-01T14:40:14;26.00;1.00
41987;DHT22;28361;50.740;7.084;2022-08-01T14:42:40;25.80;1.00
41987;DHT22;28361;50.740;7.084;2022-08-01T14:45:07;25.80;1.00
41987;DHT22;28361;50.740;7.084;2022-08-01T14:47:37;25.90;1.00
41987;DHT22;28361;50.740;7.084;2022-08-01T14:50:05;25.80;1.00
41987;DHT22;28361;50.740;7.084;2022-08-01T14:52:33;26.10;1.00
41987;DHT22;28361;50.740;7.084;2022-08-01T14:54:59;26.30;1.00
41987;DHT22;28361;50.740;7.084;2022-08-01T14:57:25;26.50;1.00
41987;DHT22;28361;50.740;7.084;2022-08-01T14:59:50;26.70;1.00
41987;DHT22;28361;50.740;7.084;2022-08-01T15:02:16;26.90;1.00
41987;DHT22;28361;50.740;7.084;2022-08-01T15:04:46;27.20;1.00
41987;DHT22;28361;50.740;7.084;2022-08-01T15:07:12;27.50;1.00
41987;DHT22;28361;50.740;7.084;2022-08-01T15:09:38;27.50;1.00
41987;DHT22;28361;50.740;7.084;2022-08-01T15:12:04;27.60;1.00
41987;DHT22;28361;50.740;7.084;2022-08-01T15:14:30;27.70;1.00
41987;DHT22;28361;50.740;7.084;2022-08-01T15:19:48;27.40;1.00
41987;DHT22;28361;50.740;7.084;2022-08-01T15:22:14;27.20;1.00
41987;DHT22;28361;50.740;7.084;2022-08-01T15:24:40;27.10;1.00
41987;DHT22;28361;50.740;7.084;2022-08-01T15:27:08;27.40;1.00
41987;DHT22;28361;50.740;7.084;2022-08-01T15:29:33;27.70;1.00
41987;DHT22;28361;50.740;7.084;2022-08-01T15:32:03;27.90;1.00
41987;DHT22;28361;50.740;7.084;2022-08-01T15:34:29;28.10;1.00
41987;DHT22;28361;50.740;7.084;2022-08-01T15:36:55;28.00;1.00
41987;DHT22;28361;50.740;7.084;2022-08-01T15:39:21;27.80;1.00
41987;DHT22;28361;50.740;7.084;2022-08-01T15:41:47;27.60;1.00
41987;DHT22;28361;50.740;7.084;2022-08-01T15:44:13;27.00;1.00
41987;DHT22;28361;50.740;7.084;2022-08-01T15:46:39;26.70;1.00
41987;DHT22;28361;50.740;7.084;2022-08-01T15:49:05;26.70;1.00
41987;DHT22;28361;50.740;7.084;2022-08-01T15:51:32;26.70;1.00
41987;DHT22;28361;50.740;7.084;2022-08-01T15:53:58;26.60;1.00
41987;DHT22;28361;50.740;7.084;2022-08-01T15:56:29;26.50;1.00
41987;DHT22;28361;50.740;7.084;2022-08-01T15:58:55;26.50;1.00
41987;DHT22;28361;50.740;7.084;2022-08-01T16:01:21;26.40;1.00
41987;DHT22;28361;50.740;7.084;2022-08-01T16:03:47;26.30;1.00
41987;DHT22;28361;50.740;7.084;2022-08-01T16:06:13;26.20;1.00
41987;DHT22;28361;50.740;7.084;2022-08-01T16:08:39;26.30;1.00
41987;DHT22;28361;50.740;7.084;2022-08-01T16:11:04;26.20;1.00
41987;DHT22;28361;50.740;7.084;2022-08-01T16:13:30;26.20;1.00
41987;DHT22;28361;50.740;7.084;2022-08-01T16:15:56;26.20;1.00
41987;DHT22;28361;50.740;7.084;2022-08-01T16:18:23;26.30;1.00
41987;DHT22;28361;50.740;7.084;2022-08-01T16:20:49;26.30;1.00
41987;DHT22;28361;50.740;7.084;2022-08-01T16:23:15;26.40;1.00
41987;DHT22;28361;50.740;7.084;2022-08-01T16:25:41;26.40;1.00
41987;DHT22;28361;50.740;7.084;2022-08-01T16:28:09;26.40;1.00
41987;DHT22;28361;50.740;7.084;2022-08-01T16:30:35;26.50;1.00
41987;DHT22;28361;50.740;7.084;2022-08-01T16:33:01;26.80;1.00
41987;DHT22;28361;50.740;7.084;2022-08-01T16:35:27;26.80;1.00
41987;DHT22;28361;50.740;7.084;2022-08-01T16:37:53;26.80;1.00
41987;DHT22;28361;50.740;7.084;2022-08-01T16:40:18;26.70;1.00
41987;DHT22;28361;50.740;7.084;2022-08-01T16:42:44;26.70;1.00
41987;DHT22;28361;50.740;7.084;2022-08-01T16:45:10;26.60;1.00
41987;DHT22;28361;50.740;7.084;2022-08-01T16:47:36;26.50;1.00
41987;DHT22;28361;50.740;7.084;2022-08-01T16:50:02;26.30;1.00
41987;DHT22;28361;50.740;7.084;2022-08-01T16:52:28;26.10;1.00
41987;DHT22;28361;50.740;7.084;2022-08-01T16:54:54;26.10;1.00
41987;DHT22;28361;50.740;7.084;2022-08-01T16:57:22;26.20;1.00
41987;DHT22;28361;50.740;7.084;2022-08-01T16:59:48;26.20;1.00
41987;DHT22;28361;50.740;7.084;2022-08-01T17:02:14;26.20;1.00
41987;DHT22;28361;50.740;7.084;2022-08-01T17:04:39;26.20;1.00
41987;DHT22;28361;50.740;7.084;2022-08-01T17:07:05;26.10;1.00
41987;DHT22;28361;50.740;7.084;2022-08-01T17:09:31;26.00;1.00
41987;DHT22;28361;50.740;7.084;2022-08-01T17:11:56;25.90;1.00
41987;DHT22;28361;50.740;7.084;2022-08-01T17:14:22;25.80;1.00
41987;DHT22;28361;50.740;7.084;2022-08-01T17:16:48;25.70;1.00
41987;DHT22;28361;50.740;7.084;2022-08-01T17:19:14;25.60;1.00
41987;DHT22;28361;50.740;7.084;2022-08-01T17:21:39;25.60;1.00
41987;DHT22;28361;50.740;7.084;2022-08-01T17:24:05;25.80;1.00
41987;DHT22;28361;50.740;7.084;2022-08-01T17:26:31;26.10;1.00
41987;DHT22;28361;50.740;7.084;2022-08-01T17:28:57;26.00;1.00
41987;DHT22;28361;50.740;7.084;2022-08-01T17:31:22;25.90;1.00
41987;DHT22;28361;50.740;7.084;2022-08-01T17:33:48;25.80;1.00
41987;DHT22;28361;50.740;7.084;2022-08-01T17:36:15;25.70;1.60
41987;DHT22;28361;50.740;7.084;2022-08-01T17:38:45;25.70;1.00
41987;DHT22;28361;50.740;7.084;2022-08-01T17:41:12;25.80;1.00
41987;DHT22;28361;50.740;7.084;2022-08-01T17:43:38;25.80;1.10
41987;DHT22;28361;50.740;7.084;2022-08-01T17:46:03;26.10;1.00
41987;DHT22;28361;50.740;7.084;2022-08-01T17:48:29;26.60;1.00
41987;DHT22;28361;50.740;7.084;2022-08-01T17:50:55;27.10;1.00
41987;DHT22;28361;50.740;7.084;2022-08-01T17:53:20;27.00;1.00
41987;DHT22;28361;50.740;7.084;2022-08-01T17:55:49;26.50;1.00
41987;DHT22;28361;50.740;7.084;2022-08-01T17:58:14;26.20;1.00
41987;DHT22;28361;50.740;7.084;2022-08-01T18:00:42;26.00;1.00
41987;DHT22;28361;50.740;7.084;2022-08-01T18:03:08;25.70;1.80
41987;DHT22;28361;50.740;7.084;2022-08-01T18:05:34;25.60;5.00
41987;DHT22;28361;50.740;7.084;2022-08-01T18:08:01;25.50;5.80
41987;DHT22;28361;50.740;7.084;2022-08-01T18:10:27;25.40;4.40
41987;DHT22;28361;50.740;7.084;2022-08-01T18:12:53;25.30;6.00
41987;DHT22;28361;50.740;7.084;2022-08-01T18:15:18;25.20;6.80
41987;DHT22;28361;50.740;7.084;2022-08-01T18:17:44;25.20;6.80
41987;DHT22;28361;50.740;7.084;2022-08-01T18:20:11;25.30;7.00
41987;DHT22;28361;50.740;7.084;2022-08-01T18:22:36;25.20;6.80
41987;DHT22;28361;50.740;7.084;2022-08-01T18:25:03;25.20;6.80
41987;DHT22;28361;50.740;7.084;2022-08-01T18:27:31;25.00;8.10
41987;DHT22;28361;50.740;7.084;2022-08-01T18:29:56;24.90;9.30
41987;DHT22;28361;50.740;7.084;2022-08-01T18:32:22;24.90;10.80
41987;DHT22;28361;50.740;7.084;2022-08-01T18:34:48;24.70;9.80
41987;DHT22;28361;50.740;7.084;2022-08-01T18:37:14;24.70;11.20
41987;DHT22;28361;50.740;7.084;2022-08-01T18:39:41;24.60;12.10
41987;DHT22;28361;50.740;7.084;2022-08-01T18:42:07;24.50;13.30
41987;DHT22;28361;50.740;7.084;2022-08-01T18:44:33;24.40;14.80
41987;DHT22;28361;50.740;7.084;2022-08-01T18:47:02;24.40;13.50
41987;DHT22;28361;50.740;7.084;2022-08-01T18:49:28;24.40;14.90
41987;DHT22;28361;50.740;7.084;2022-08-01T18:51:54;24.30;17.50
41987;DHT22;28361;50.740;7.084;2022-08-01T18:54:22;24.20;21.10
41987;DHT22;28361;50.740;7.084;2022-08-01T18:56:48;24.10;21.40
41987;DHT22;28361;50.740;7.084;2022-08-01T18:59:14;24.00;22.60
41987;DHT22;28361;50.740;7.084;2022-08-01T19:01:40;23.90;24.10
41987;DHT22;28361;50.740;7.084;2022-08-01T19:04:06;23.80;22.00
41987;DHT22;28361;50.740;7.084;2022-08-01T19:06:33;23.70;21.80
41987;DHT22;28361;50.740;7.084;2022-08-01T19:08:58;23.70;25.40
41987;DHT22;28361;50.740;7.084;2022-08-01T19:11:25;23.60;26.60
41987;DHT22;28361;50.740;7.084;2022-08-01T19:13:51;23.50;27.20
41987;DHT22;28361;50.740;7.084;2022-08-01T19:16:18;23.50;27.90
41987;DHT22;28361;50.740;7.084;2022-08-01T19:18:44;23.40;28.30
41987;DHT22;28361;50.740;7.084;2022-08-01T19:21:09;23.40;29.10
41987;DHT22;28361;50.740;7.084;2022-08-01T19:23:35;23.30;31.10
41987;DHT22;28361;50.740;7.084;2022-08-01T19:26:21;23.20;32.60
41987;DHT22;28361;50.740;7.084;2022-08-01T19:28:59;23.10;33.10
41987;DHT22;28361;50.740;7.084;2022-08-01T19:31:27;23.10;36.30
41987;DHT22;28361;50.740;7.084;2022-08-01T19:33:55;23.00;39.40
41987;DHT22;28361;50.740;7.084;2022-08-01T19:36:22;22.90;45.80
41987;DHT22;28361;50.740;7.084;2022-08-01T19:38:48;22.80;43.90
41987;DHT22;28361;50.740;7.084;2022-08-01T19:41:16;22.90;44.40
41987;DHT22;28361;50.740;7.084;2022-08-01T19:43:43;22.90;41.80
41987;DHT22;28361;50.740;7.084;2022-08-01T19:46:09;22.90;41.70
41987;DHT22;28361;50.740;7.084;2022-08-01T19:48:36;22.90;43.20
41987;DHT22;28361;50.740;7.084;2022-08-01T19:51:03;22.80;44.50
41987;DHT22;28361;50.740;7.084;2022-08-01T19:53:37;22.70;46.80
41987;DHT22;28361;50.740;7.084;2022-08-01T19:56:05;22.60;49.10
41987;DHT22;28361;50.740;7.084;2022-08-01T19:58:36;22.60;49.00
41987;DHT22;28361;50.740;7.084;2022-08-01T20:01:07;22.60;50.50
41987;DHT22;28361;50.740;7.084;2022-08-01T20:03:34;22.60;47.10
41987;DHT22;28361;50.740;7.084;2022-08-01T20:06:01;22.70;44.50
41987;DHT22;28361;50.740;7.084;2022-08-01T20:08:31;22.70;42.90
41987;DHT22;28361;50.740;7.084;2022-08-01T20:10:58;22.60;39.50
41987;DHT22;28361;50.740;7.084;2022-08-01T20:13:24;22.60;39.40
41987;DHT22;28361;50.740;7.084;2022-08-01T20:15:51;22.50;39.10
41987;DHT22;28361;50.740;7.084;2022-08-01T20:18:17;22.50;38.50
41987;DHT22;28361;50.740;7.084;2022-08-01T20:20:45;22.40;41.30
41987;DHT22;28361;50.740;7.084;2022-08-01T20:23:13;22.40;39.50
41987;DHT22;28361;50.740;7.084;2022-08-01T20:25:40;22.30;38.50
41987;DHT22;28361;50.740;7.084;2022-08-01T20:28:11;22.30;38.90
41987;DHT22;28361;50.740;7.084;2022-08-01T20:30:41;22.30;38.00
41987;DHT22;28361;50.740;7.084;2022-08-01T20:33:09;22.20;38.90
41987;DHT22;28361;50.740;7.084;2022-08-01T20:35:37;22.10;39.60
41987;DHT22;28361;50.740;7.084;2022-08-01T20:38:03;22.00;46.00
41987;DHT22;28361;50.740;7.084;2022-08-01T20:40:31;22.00;41.00
41987;DHT22;28361;50.740;7.084;2022-08-01T20:42:57;22.00;42.30
41987;DHT22;28361;50.740;7.084;2022-08-01T20:45:24;21.80;40.00
41987;DHT22;28361;50.740;7.084;2022-08-01T20:47:52;21.90;40.60
41987;DHT22;28361;50.740;7.084;2022-08-01T20:50:19;21.80;36.70
41987;DHT22;28361;50.740;7.084;2022-08-01T20:53:04;21.70;42.90
41987;DHT22;28361;50.740;7.084;2022-08-01T20:55:43;21.70;51.30
41987;DHT22;28361;50.740;7.084;2022-08-01T20:58:11;21.60;44.60
41987;DHT22;28361;50.740;7.084;2022-08-01T21:00:39;21.60;47.10
41987;DHT22;28361;50.740;7.084;2022-08-01T21:03:21;21.50;50.40
41987;DHT22;28361;50.740;7.084;2022-08-01T21:06:03;21.40;50.50
41987;DHT22;28361;50.740;7.084;2022-08-01T21:08:50;21.40;52.00
41987;DHT22;28361;50.740;7.084;2022-08-01T21:11:20;21.30;55.00
41987;DHT22;28361;50.740;7.084;2022-08-01T21:13:47;21.30;53.60
41987;DHT22;28361;50.740;7.084;2022-08-01T21:16:25;21.30;51.10
41987;DHT22;28361;50.740;7.084;2022-08-01T21:18:59;21.20;56.10
41987;DHT22;28361;50.740;7.084;2022-08-01T21:21:26;21.30;54.40
41987;DHT22;28361;50.740;7.084;2022-08-01T21:23:54;21.20;58.20
41987;DHT22;28361;50.740;7.084;2022-08-01T21:26:23;21.20;56.10